Time;durP1;ratioP1;P1;durP2;ratioP2;P2;SDS_P1;SDS_P2;PMS_P1;PMS_P2;Temp;Humidity;BMP_temperature;BMP_pressure;BME280_temperature;BME280_humidity;BME280_pressure;Samples;Min_cycle;Max_cycle;Signal;HPM_P1;HPM_P2
2022/12/16 00:00:31;;;;;;;35.33;19.07;;;0.90;80.90;;;;;;5109369;28;20056;-72
2022/12/16 00:03:01;;;;;;;27.42;17.08;;;0.90;80.90;;;;;;5110050;28;20831;-72
2022/12/16 00:05:28;;;;;;;36.10;18.08;;;0.90;80.90;;;;;;5110866;27;20084;-72
2022/12/16 00:07:55;;;;;;;32.85;18.60;;;0.90;81.00;;;;;;5110591;27;20601;-71
2022/12/16 00:10:23;;;;;;;32.75;18.15;;;0.90;81.00;;;;;;5089332;28;20071;-71
2022/12/16 00:12:50;;;;;;;32.87;17.40;;;0.90;81.00;;;;;;5088779;28;20051;-72
2022/12/16 00:15:18;;;;;;;34.20;17.65;;;0.90;81.00;;;;;;5100444;27;21009;-71
2022/12/16 00:17:45;;;;;;;32.17;18.75;;;0.90;81.10;;;;;;5098700;28;20525;-72
2022/12/16 00:20:14;;;;;;;31.00;16.88;;;0.90;81.10;;;;;;5090240;28;20622;-72
2022/12/16 00:22:41;;;;;;;31.13;17.33;;;1.00;81.10;;;;;;5099729;28;20126;-72
2022/12/16 00:25:09;;;;;;;32.77;18.00;;;0.90;81.20;;;;;;5109450;28;20052;-72
2022/12/16 00:27:36;;;;;;;30.88;17.67;;;0.90;81.20;;;;;;5109649;28;20275;-71
2022/12/16 00:30:03;;;;;;;31.25;17.42;;;1.00;81.30;;;;;;5108847;28;20043;-72
2022/12/16 00:32:30;;;;;;;33.22;17.67;;;0.90;81.30;;;;;;5083480;28;20045;-72
2022/12/16 00:34:57;;;;;;;30.33;17.88;;;1.00;81.40;;;;;;5100148;28;20052;-72
2022/12/16 00:37:27;;;;;;;31.80;17.87;;;1.00;81.50;;;;;;5097103;28;20052;-72
2022/12/16 00:39:54;;;;;;;28.75;16.48;;;1.00;81.50;;;;;;5092053;28;20250;-72
2022/12/16 00:42:21;;;;;;;29.27;17.20;;;1.00;81.50;;;;;;5109229;28;20711;-72
2022/12/16 00:44:48;;;;;;;30.52;16.98;;;1.00;81.50;;;;;;5110015;28;20425;-72
2022/12/16 00:47:15;;;;;;;31.17;16.67;;;1.10;81.50;;;;;;5110469;28;20492;-71
2022/12/16 00:49:42;;;;;;;31.60;16.50;;;1.10;81.50;;;;;;5108886;28;20048;-72
2022/12/16 00:52:09;;;;;;;32.50;16.42;;;1.10;81.40;;;;;;5108949;28;20285;-72
2022/12/16 00:54:37;;;;;;;30.55;17.02;;;1.10;81.40;;;;;;5108742;28;20524;-72
2022/12/16 00:57:04;;;;;;;29.90;16.90;;;1.10;81.30;;;;;;5108817;28;20052;-72
2022/12/16 00:59:31;;;;;;;30.83;16.98;;;1.10;81.30;;;;;;5109615;28;20052;-72
2022/12/16 01:01:58;;;;;;;30.03;17.30;;;1.10;81.30;;;;;;5108526;28;20051;-72
2022/12/16 01:04:26;;;;;;;32.03;17.58;;;1.10;81.20;;;;;;5108726;28;20243;-72
2022/12/16 01:06:53;;;;;;;31.77;17.13;;;1.10;81.20;;;;;;5091578;28;20050;-72
2022/12/16 01:09:21;;;;;;;28.58;17.25;;;1.10;81.10;;;;;;5108089;28;20044;-72
2022/12/16 01:11:49;;;;;;;30.92;17.40;;;1.00;81.20;;;;;;5087930;28;20056;-72
2022/12/16 01:14:16;;;;;;;31.83;17.83;;;1.00;81.10;;;;;;5105148;28;20166;-72
2022/12/16 01:16:43;;;;;;;28.27;16.13;;;1.00;81.20;;;;;;5109029;28;20364;-72
2022/12/16 01:19:10;;;;;;;32.97;17.50;;;1.10;81.30;;;;;;5108963;28;20056;-72
2022/12/16 01:21:37;;;;;;;32.60;17.40;;;1.10;81.20;;;;;;5107448;28;20494;-72
2022/12/16 01:24:05;;;;;;;30.45;17.42;;;1.10;81.30;;;;;;5108179;28;20157;-71
2022/12/16 01:26:32;;;;;;;32.73;17.37;;;1.10;81.30;;;;;;5107857;27;20048;-72
2022/12/16 01:29:01;;;;;;;31.23;17.88;;;1.10;81.30;;;;;;5087777;28;20354;-72
2022/12/16 01:31:28;;;;;;;30.33;17.20;;;1.10;81.30;;;;;;5073582;28;20040;-72
2022/12/16 01:33:55;;;;;;;29.52;17.42;;;1.10;81.30;;;;;;5097803;28;20040;-71
2022/12/16 01:36:22;;;;;;;32.70;17.55;;;1.10;81.30;;;;;;5106372;28;20057;-72
2022/12/16 01:38:49;;;;;;;31.10;17.40;;;1.10;81.30;;;;;;5090958;28;20132;-72
2022/12/16 01:41:18;;;;;;;29.50;17.50;;;1.20;81.30;;;;;;5091122;28;20380;-71
2022/12/16 01:43:46;;;;;;;31.95;17.05;;;1.20;81.30;;;;;;5109301;28;20059;-72
2022/12/16 01:46:19;;;;;;;29.98;16.90;;;1.20;81.20;;;;;;5092600;27;20040;-71
2022/12/16 01:48:49;;;;;;;32.20;17.35;;;1.20;81.30;;;;;;5099735;28;20052;-72
2022/12/16 01:51:24;;;;;;;31.17;17.03;;;1.20;81.20;;;;;;5107297;28;20048;-71
2022/12/16 01:53:56;;;;;;;29.50;16.00;;;1.20;81.20;;;;;;5090606;28;20332;-72
2022/12/16 01:56:27;;;;;;;31.75;17.65;;;1.30;81.20;;;;;;5108134;28;20495;-72
2022/12/16 01:58:56;;;;;;;29.50;17.65;;;1.20;81.20;;;;;;5107390;28;20167;-72
2022/12/16 02:01:24;;;;;;;33.00;17.65;;;1.30;81.20;;;;;;5107765;28;20600;-72
2022/12/16 02:03:54;;;;;;;34.10;17.80;;;1.30;81.20;;;;;;5098666;28;20843;-71
2022/12/16 02:06:21;;;;;;;33.22;17.20;;;1.30;81.20;;;;;;5109090;28;20691;-72
2022/12/16 02:08:54;;;;;;;29.70;16.35;;;1.30;81.10;;;;;;5107346;28;20127;-72
2022/12/16 02:11:48;;;;;;;32.45;17.25;;;1.30;81.10;;;;;;5108789;28;20079;-71
2022/12/16 02:14:41;;;;;;;29.60;15.82;;;1.20;81.10;;;;;;5075847;28;20159;-72
2022/12/16 02:17:15;;;;;;;36.07;17.43;;;1.10;81.30;;;;;;5089459;28;20055;-72
2022/12/16 02:20:08;;;;;;;29.75;16.55;;;1.00;81.50;;;;;;5104160;28;20684;-71
2022/12/16 02:22:52;;;;;;;29.48;16.98;;;1.00;81.60;;;;;;5074896;28;20449;-72
2022/12/16 02:25:47;;;;;;;29.25;16.75;;;1.00;81.70;;;;;;5108467;28;20059;-72
2022/12/16 02:28:30;;;;;;;28.67;16.58;;;1.00;81.80;;;;;;5102222;28;20062;-72
2022/12/16 02:31:13;;;;;;;31.97;17.77;;;1.00;81.80;;;;;;5108358;28;20135;-71
2022/12/16 02:33:52;;;;;;;32.85;17.23;;;1.00;81.90;;;;;;5107607;28;20277;-72
2022/12/16 02:36:30;;;;;;;30.23;17.15;;;1.00;81.80;;;;;;5107371;28;20168;-72
2022/12/16 02:39:00;;;;;;;32.13;16.33;;;1.10;81.90;;;;;;5096154;28;20059;-72
2022/12/16 02:41:37;;;;;;;30.30;16.38;;;1.10;81.80;;;;;;5086914;28;20156;-72
2022/12/16 02:44:07;;;;;;;28.97;16.23;;;1.10;81.90;;;;;;5103398;28;20139;-71
2022/12/16 02:46:40;;;;;;;34.53;18.02;;;1.10;81.90;;;;;;5108465;27;20778;-72
2022/12/16 02:49:08;;;;;;;31.45;17.58;;;1.10;81.90;;;;;;5107893;28;20209;-71
2022/12/16 02:51:37;;;;;;;29.55;16.27;;;1.10;82.00;;;;;;5090037;28;20059;-72
2022/12/16 02:54:09;;;;;;;31.20;16.48;;;1.10;82.00;;;;;;5101291;28;20060;-71
2022/12/16 02:56:53;;;;;;;31.13;16.37;;;1.20;82.10;;;;;;5087114;28;20057;-72
2022/12/16 02:59:27;;;;;;;28.73;16.40;;;1.20;82.10;;;;;;5105450;28;20316;-72
2022/12/16 03:02:03;;;;;;;31.17;16.13;;;1.20;82.20;;;;;;5106978;28;20573;-71
2022/12/16 03:04:38;;;;;;;30.67;16.67;;;1.20;82.10;;;;;;5106901;28;20512;-72
2022/12/16 03:07:09;;;;;;;28.58;16.20;;;1.20;82.10;;;;;;5108265;28;20052;-72
2022/12/16 03:09:39;;;;;;;30.37;16.23;;;1.20;82.10;;;;;;5106386;28;20056;-72
2022/12/16 03:12:09;;;;;;;29.70;16.23;;;1.20;82.20;;;;;;5105402;28;20854;-72
2022/12/16 03:14:40;;;;;;;29.40;16.60;;;1.20;82.10;;;;;;5086507;28;20044;-71
2022/12/16 03:17:11;;;;;;;27.00;15.70;;;1.20;82.10;;;;;;5088516;28;20052;-72
2022/12/16 03:19:41;;;;;;;28.52;16.38;;;1.20;82.20;;;;;;5107499;28;20510;-70
2022/12/16 03:22:12;;;;;;;31.63;16.70;;;1.20;82.20;;;;;;5106508;28;20053;-72
2022/12/16 03:24:40;;;;;;;28.25;15.82;;;1.20;82.30;;;;;;5108039;28;20312;-71
2022/12/16 03:27:14;;;;;;;27.15;14.77;;;1.20;82.40;;;;;;5107188;28;20066;-72
2022/12/16 03:29:49;;;;;;;28.63;16.02;;;1.20;82.40;;;;;;5102222;28;20688;-72
2022/12/16 03:32:23;;;;;;;25.58;14.90;;;1.20;82.40;;;;;;5088957;28;20182;-72
2022/12/16 03:34:54;;;;;;;26.80;15.67;;;1.20;82.40;;;;;;5106223;28;20092;-72
2022/12/16 03:37:24;;;;;;;26.85;14.63;;;1.20;82.40;;;;;;5106039;28;20255;-72
2022/12/16 03:39:54;;;;;;;26.58;14.65;;;1.20;82.40;;;;;;5106274;28;21119;-72
2022/12/16 03:42:22;;;;;;;27.58;14.90;;;1.20;82.50;;;;;;5107366;28;20085;-72
2022/12/16 03:44:50;;;;;;;27.23;15.45;;;1.20;82.50;;;;;;5107709;28;20062;-72
2022/12/16 03:47:18;;;;;;;26.00;15.30;;;1.20;82.40;;;;;;5099607;28;20063;-72
2022/12/16 03:49:45;;;;;;;27.42;14.65;;;1.20;82.40;;;;;;5068856;28;20247;-71
2022/12/16 03:52:12;;;;;;;24.50;13.63;;;1.20;82.50;;;;;;5078484;28;20050;-72
2022/12/16 03:54:39;;;;;;;26.85;13.98;;;1.20;82.50;;;;;;5111110;28;20270;-71
2022/12/16 03:57:06;;;;;;;25.00;14.02;;;1.30;82.60;;;;;;5109299;28;20063;-71
2022/12/16 03:59:34;;;;;;;28.77;15.23;;;1.30;82.60;;;;;;5109550;28;20048;-72
2022/12/16 04:02:01;;;;;;;26.42;13.70;;;1.40;82.60;;;;;;5110588;28;20814;-72
2022/12/16 04:04:30;;;;;;;25.30;14.48;;;1.30;82.60;;;;;;5107077;28;20121;-72
2022/12/16 04:09:41;;;;;;;30.45;15.95;;;1.40;82.60;;;;;;5109398;28;20157;-72
2022/12/16 04:25:59;;;;;;;21.10;12.10;;;1.40;82.50;;;;;;5088689;28;20127;-72
2022/12/16 04:28:26;;;;;;;22.17;12.02;;;1.40;82.50;;;;;;5104759;28;20628;-72
2022/12/16 04:30:53;;;;;;;21.70;11.57;;;1.40;82.50;;;;;;5109132;28;20047;-71
